createdAt,value
2023-05-05T00:01:25.023Z,74.59
2023-05-05T00:03:52.308Z,74.62
2023-05-05T00:06:19.374Z,74.78
2023-05-05T00:08:46.446Z,74.85
2023-05-05T00:11:13.413Z,74.91
2023-05-05T00:13:40.184Z,74.88
2023-05-05T00:16:07.113Z,74.84
2023-05-05T00:18:34.121Z,74.87
2023-05-05T00:21:01.109Z,74.97
2023-05-05T00:23:27.873Z,74.92
2023-05-05T00:25:54.601Z,74.82
2023-05-05T00:28:21.413Z,74.79
2023-05-05T00:30:48.175Z,74.84
2023-05-05T00:33:14.944Z,74.70
2023-05-05T00:35:41.732Z,74.56
2023-05-05T00:38:08.586Z,74.48
2023-05-05T00:40:36.227Z,74.55
2023-05-05T00:43:03.190Z,74.49
2023-05-05T00:45:30.136Z,74.71
2023-05-05T00:48:00.981Z,74.79
2023-05-05T00:50:30.517Z,74.87
2023-05-05T00:53:02.949Z,74.93
2023-05-05T00:55:30.792Z,74.80
2023-05-05T00:57:58.997Z,74.91
2023-05-05T01:00:27.114Z,74.90
2023-05-05T01:02:54.407Z,74.80
2023-05-05T01:05:23.916Z,74.78
2023-05-05T01:07:53.977Z,74.91
2023-05-05T01:10:41.075Z,74.99
2023-05-05T01:13:29.760Z,75.22
2023-05-05T01:16:12.665Z,75.40
2023-05-05T01:18:44.878Z,75.20
2023-05-05T01:21:19.805Z,75.15
2023-05-05T01:23:52.448Z,75.14
2023-05-05T01:26:50.289Z,75.40
2023-05-05T01:29:27.634Z,75.20
2023-05-05T01:31:59.817Z,75.18
2023-05-05T01:34:29.242Z,75.24
2023-05-05T01:37:04.776Z,75.07
2023-05-05T01:39:35.003Z,75.03
2023-05-05T01:42:08.915Z,75.28
2023-05-05T01:44:37.766Z,75.03
2023-05-05T01:47:06.513Z,74.74
2023-05-05T01:49:39.241Z,74.94
2023-05-05T01:52:06.844Z,75.15
2023-05-05T01:54:34.725Z,75.23
2023-05-05T01:57:05.202Z,75.23
2023-05-05T01:59:33.435Z,75.05
2023-05-05T02:02:02.107Z,74.89
2023-05-05T02:04:31.454Z,75.05
2023-05-05T02:06:59.623Z,75.04
2023-05-05T02:09:28.635Z,74.96
2023-05-05T02:11:58.431Z,75.13
2023-05-05T02:14:27.227Z,75.14
2023-05-05T02:16:56.496Z,74.98
2023-05-05T02:19:32.166Z,74.83
2023-05-05T02:21:59.000Z,74.60
2023-05-05T02:24:26.539Z,74.59
2023-05-05T02:26:55.016Z,74.65
2023-05-05T02:29:39.331Z,74.58
2023-05-05T02:32:14.428Z,74.90
2023-05-05T02:34:43.190Z,74.75
2023-05-05T02:37:12.611Z,74.72
2023-05-05T02:39:47.373Z,74.96
2023-05-05T02:42:20.067Z,74.89
2023-05-05T02:44:48.837Z,74.95
2023-05-05T02:47:15.774Z,75.02
2023-05-05T02:49:43.065Z,74.83
2023-05-05T02:52:09.993Z,75.06
2023-05-05T02:54:37.522Z,74.99
2023-05-05T02:57:04.464Z,74.99
2023-05-05T02:59:57.086Z,74.85
2023-05-05T03:02:27.340Z,74.90
2023-05-05T03:05:09.979Z,74.89
2023-05-05T03:07:48.996Z,74.93
2023-05-05T03:10:21.450Z,75.10
2023-05-05T03:12:55.313Z,75.08
2023-05-05T03:15:45.266Z,75.17
2023-05-05T03:18:15.527Z,75.33
2023-05-05T03:20:42.791Z,75.57
2023-05-05T03:23:10.343Z,75.86
2023-05-05T03:25:48.207Z,75.86
2023-05-05T03:28:16.201Z,76.04
2023-05-05T03:30:42.953Z,75.61
2023-05-05T03:33:10.678Z,75.68
2023-05-05T03:35:37.822Z,75.53
2023-05-05T03:38:04.494Z,75.49
2023-05-05T03:40:42.960Z,75.57
2023-05-05T03:43:11.000Z,75.38
2023-05-05T03:45:37.836Z,75.53
2023-05-05T03:48:04.916Z,75.70
2023-05-05T03:50:31.811Z,75.65
2023-05-05T03:52:58.394Z,75.50
2023-05-05T03:55:25.053Z,75.76
2023-05-05T03:57:51.761Z,75.71
2023-05-05T04:00:18.757Z,75.87
2023-05-05T04:02:45.641Z,75.84
2023-05-05T04:05:12.519Z,75.86
2023-05-05T04:07:39.328Z,75.91
2023-05-05T04:10:07.142Z,76.10
2023-05-05T04:12:34.120Z,75.92
2023-05-05T04:15:00.738Z,76.06
2023-05-05T04:17:27.320Z,76.05
2023-05-05T04:19:54.398Z,76.06
2023-05-05T04:22:21.236Z,76.19
2023-05-05T04:24:47.826Z,76.35
2023-05-05T04:27:14.520Z,76.43
2023-05-05T04:29:41.362Z,76.49
2023-05-05T04:32:07.931Z,76.58
2023-05-05T04:34:34.773Z,76.61
2023-05-05T04:37:01.513Z,76.71
2023-05-05T04:39:28.145Z,76.90
2023-05-05T04:41:54.776Z,77.06
2023-05-05T04:44:21.420Z,77.11
2023-05-05T04:46:48.053Z,77.15
2023-05-05T04:49:14.863Z,77.02
2023-05-05T04:51:42.413Z,77.16
2023-05-05T04:54:09.125Z,77.14
2023-05-05T04:56:36.042Z,77.39
2023-05-05T04:59:02.722Z,77.07
2023-05-05T05:01:29.417Z,77.11
2023-05-05T05:03:56.122Z,77.11
2023-05-05T05:06:23.014Z,77.42
2023-05-05T05:08:49.567Z,77.19
2023-05-05T05:11:16.459Z,77.16
2023-05-05T05:13:43.246Z,77.37
2023-05-05T05:16:09.956Z,77.12
2023-05-05T05:18:36.954Z,76.95
2023-05-05T05:21:03.734Z,77.03
2023-05-05T05:23:30.829Z,77.14
2023-05-05T05:25:57.731Z,77.04
2023-05-05T05:28:24.366Z,77.03
2023-05-05T05:30:52.124Z,77.05
2023-05-05T05:33:19.295Z,76.96
2023-05-05T05:35:46.290Z,76.96
2023-05-05T05:38:12.916Z,76.83
2023-05-05T05:40:39.770Z,76.73
2023-05-05T05:43:06.531Z,76.79
2023-05-05T05:45:33.211Z,76.86
2023-05-05T05:47:59.937Z,76.89
2023-05-05T05:50:28.705Z,76.82
2023-05-05T05:52:55.869Z,76.81
2023-05-05T05:55:22.678Z,76.72
2023-05-05T05:57:49.255Z,76.59
2023-05-05T06:00:16.199Z,76.71
2023-05-05T06:02:43.128Z,76.54
2023-05-05T06:05:10.592Z,76.22
2023-05-05T06:07:37.182Z,76.17
2023-05-05T06:10:18.514Z,76.15
2023-05-05T06:12:45.550Z,76.29
2023-05-05T06:15:13.833Z,76.20
2023-05-05T06:17:40.449Z,76.27
2023-05-05T06:20:07.827Z,75.96
2023-05-05T06:22:34.660Z,75.94
2023-05-05T06:25:01.236Z,75.87
2023-05-05T06:27:28.017Z,75.68
2023-05-05T06:29:54.627Z,75.79
2023-05-05T06:32:21.214Z,75.78
2023-05-05T06:34:48.344Z,75.51
2023-05-05T06:37:15.092Z,75.52
2023-05-05T06:39:41.753Z,74.94
2023-05-05T06:42:08.353Z,74.35
2023-05-05T06:44:36.642Z,74.19
2023-05-05T06:47:03.853Z,73.98
2023-05-05T06:49:30.532Z,73.44
2023-05-05T06:51:57.301Z,73.58
2023-05-05T06:54:23.953Z,73.17
2023-05-05T06:56:50.651Z,72.83
2023-05-05T06:59:19.892Z,72.49
2023-05-05T07:01:46.596Z,72.47
2023-05-05T07:04:13.235Z,72.14
2023-05-05T07:06:40.087Z,71.95
2023-05-05T07:09:06.752Z,71.84
2023-05-05T07:11:33.594Z,71.77
2023-05-05T07:14:00.482Z,71.42
2023-05-05T07:16:27.452Z,70.99
2023-05-05T07:18:54.284Z,70.28
2023-05-05T07:21:21.152Z,69.92
2023-05-05T07:23:48.007Z,69.33
2023-05-05T07:26:15.349Z,68.64
2023-05-05T07:28:43.247Z,67.59
2023-05-05T07:31:09.997Z,66.95
2023-05-05T07:33:36.614Z,66.76
2023-05-05T07:36:03.940Z,65.40
2023-05-05T07:38:30.602Z,64.59
2023-05-05T07:40:57.215Z,63.74
2023-05-05T07:43:24.138Z,63.02
2023-05-05T07:45:51.074Z,62.52
2023-05-05T07:48:17.859Z,62.42
2023-05-05T07:50:44.711Z,61.85
2023-05-05T07:53:14.972Z,61.38
2023-05-05T07:55:42.465Z,60.85
2023-05-05T07:58:11.212Z,61.01
2023-05-05T08:00:38.502Z,60.66
2023-05-05T08:03:05.299Z,60.28
2023-05-05T08:05:32.240Z,60.49
2023-05-05T08:07:58.883Z,60.48
2023-05-05T08:10:25.535Z,60.42
2023-05-05T08:12:52.533Z,60.46
2023-05-05T08:15:19.225Z,60.56
2023-05-05T08:17:48.064Z,60.56
2023-05-05T08:20:19.330Z,60.39
2023-05-05T08:22:46.890Z,60.14
2023-05-05T08:25:14.428Z,59.32
2023-05-05T08:27:42.864Z,59.58
2023-05-05T08:30:10.116Z,59.10
2023-05-05T08:32:36.950Z,58.49
2023-05-05T08:35:05.339Z,58.00
2023-05-05T08:37:32.537Z,57.84
2023-05-05T08:39:59.230Z,57.96
2023-05-05T08:42:37.183Z,57.96
2023-05-05T08:45:05.978Z,57.99
2023-05-05T08:47:33.541Z,57.17
2023-05-05T08:50:01.927Z,57.02
2023-05-05T08:52:38.526Z,56.44
2023-05-05T08:55:18.086Z,55.58
2023-05-05T08:57:56.216Z,54.81
2023-05-05T09:00:23.928Z,54.23
2023-05-05T09:02:51.035Z,54.72
2023-05-05T09:05:18.302Z,54.70
2023-05-05T09:07:46.826Z,54.17
2023-05-05T09:10:13.776Z,54.21
2023-05-05T09:12:42.588Z,54.45
2023-05-05T09:15:11.680Z,53.72
2023-05-05T09:17:39.658Z,53.47
2023-05-05T09:20:12.091Z,53.82
2023-05-05T09:22:43.452Z,53.09
2023-05-05T09:25:14.836Z,52.52
2023-05-05T09:27:47.479Z,52.17
2023-05-05T09:30:23.546Z,51.92
2023-05-05T09:32:55.352Z,51.52
2023-05-05T09:35:23.148Z,51.18
2023-05-05T09:37:50.229Z,50.68
2023-05-05T09:40:18.831Z,50.73
2023-05-05T09:42:46.009Z,50.46
2023-05-05T09:45:19.007Z,50.56
2023-05-05T09:47:49.403Z,50.52
2023-05-05T09:50:19.043Z,50.71
2023-05-05T09:53:03.076Z,50.42
2023-05-05T09:55:32.952Z,49.85
2023-05-05T09:58:18.979Z,49.22
2023-05-05T10:00:46.578Z,48.97
2023-05-05T10:03:13.782Z,48.66
2023-05-05T10:05:48.149Z,48.47
2023-05-05T10:08:15.111Z,48.72
2023-05-05T10:10:53.662Z,48.77
2023-05-05T10:13:22.817Z,48.50
2023-05-05T10:15:52.069Z,48.75
2023-05-05T10:18:27.157Z,48.71
2023-05-05T10:20:58.813Z,49.02
2023-05-05T10:23:49.646Z,48.56
2023-05-05T10:26:18.607Z,47.77
2023-05-05T10:28:51.414Z,46.67
2023-05-05T10:31:26.535Z,46.00
2023-05-05T10:34:04.260Z,46.11
2023-05-05T10:36:31.949Z,45.87
2023-05-05T10:39:00.673Z,45.64
2023-05-05T10:41:29.039Z,45.66
2023-05-05T10:44:00.409Z,45.08
2023-05-05T10:46:29.420Z,44.64
2023-05-05T10:49:02.006Z,44.94
2023-05-05T10:51:53.841Z,44.64
2023-05-05T10:54:30.469Z,44.27
2023-05-05T10:57:01.588Z,44.04
2023-05-05T10:59:37.963Z,43.43
2023-05-05T11:02:21.617Z,42.55
2023-05-05T11:05:07.422Z,42.85
2023-05-05T11:07:37.580Z,43.25
2023-05-05T11:10:06.349Z,42.85
2023-05-05T11:12:50.062Z,43.00
2023-05-05T11:15:31.931Z,42.15
2023-05-05T11:17:59.904Z,41.86
2023-05-05T11:20:36.377Z,41.59
2023-05-05T11:23:03.308Z,41.56
2023-05-05T11:25:41.073Z,41.50
2023-05-05T11:28:15.538Z,41.58
2023-05-05T11:31:00.598Z,41.84
2023-05-05T11:33:38.521Z,42.29
2023-05-05T11:36:09.185Z,42.81
2023-05-05T11:38:48.687Z,43.23
2023-05-05T11:41:34.857Z,43.39
2023-05-05T11:44:12.384Z,43.26
2023-05-05T11:47:05.113Z,43.11
2023-05-05T11:49:33.875Z,42.99
2023-05-05T11:52:05.735Z,42.81
2023-05-05T11:54:34.729Z,42.25
2023-05-05T11:57:05.053Z,42.70
2023-05-05T11:59:32.512Z,42.29
2023-05-05T12:01:59.868Z,42.46
2023-05-05T12:04:26.675Z,42.29
2023-05-05T12:06:55.529Z,42.52
2023-05-05T12:09:23.084Z,42.38
2023-05-05T12:11:56.511Z,42.49
2023-05-05T12:14:25.346Z,42.55
2023-05-05T12:17:01.322Z,43.40
2023-05-05T12:19:30.453Z,42.97
2023-05-05T12:21:57.247Z,43.07
2023-05-05T12:24:24.069Z,42.40
2023-05-05T12:26:51.908Z,41.90
2023-05-05T12:29:26.182Z,41.47
2023-05-05T12:31:53.086Z,41.37
2023-05-05T12:34:21.328Z,41.65
2023-05-05T12:36:48.164Z,40.96
2023-05-05T12:39:15.077Z,41.00
2023-05-05T12:41:42.110Z,41.15
2023-05-05T12:44:08.716Z,40.86
2023-05-05T12:46:46.103Z,40.82
2023-05-05T12:49:12.906Z,40.96
2023-05-05T12:51:39.570Z,40.68
2023-05-05T12:54:10.380Z,40.69
2023-05-05T12:56:45.556Z,40.72
2023-05-05T12:59:28.616Z,41.51
2023-05-05T13:01:57.123Z,41.98
2023-05-05T13:04:28.045Z,42.15
2023-05-05T13:07:15.181Z,41.38
2023-05-05T13:09:42.434Z,41.48
2023-05-05T13:12:11.991Z,40.85
2023-05-05T13:14:39.964Z,40.29
2023-05-05T13:17:06.886Z,40.08
2023-05-05T13:19:35.746Z,40.37
2023-05-05T13:22:02.447Z,40.20
2023-05-05T13:24:42.751Z,39.99
2023-05-05T13:27:16.794Z,39.95
2023-05-05T13:29:43.857Z,40.04
2023-05-05T13:32:10.508Z,39.58
2023-05-05T13:34:39.327Z,40.07
2023-05-05T13:37:06.555Z,39.84
2023-05-05T13:39:33.329Z,39.56
2023-05-05T13:42:00.853Z,39.72
2023-05-05T13:44:27.516Z,39.31
2023-05-05T13:46:54.289Z,39.43
2023-05-05T13:49:21.050Z,39.93
2023-05-05T13:51:47.879Z,39.92
2023-05-05T13:54:14.527Z,39.85
2023-05-05T13:56:41.426Z,39.65
2023-05-05T13:59:08.154Z,40.02
2023-05-05T14:01:35.018Z,40.38
2023-05-05T14:04:05.182Z,40.28
2023-05-05T14:06:32.810Z,39.91
2023-05-05T14:08:59.487Z,39.76
2023-05-05T14:11:26.488Z,39.95
2023-05-05T14:13:53.280Z,40.09
2023-05-05T14:16:19.904Z,39.68
2023-05-05T14:18:46.682Z,39.28
2023-05-05T14:21:13.577Z,39.57
2023-05-05T14:23:40.327Z,39.83
2023-05-05T14:26:08.993Z,39.99
2023-05-05T14:28:36.142Z,39.99
2023-05-05T14:31:02.828Z,40.42
2023-05-05T14:33:29.548Z,39.70
2023-05-05T14:35:56.217Z,39.68
2023-05-05T14:38:23.126Z,39.72
2023-05-05T14:40:49.911Z,39.97
2023-05-05T14:43:16.655Z,39.87
2023-05-05T14:45:44.336Z,39.95
2023-05-05T14:48:14.509Z,39.77
2023-05-05T14:50:42.519Z,39.86
2023-05-05T14:53:12.378Z,40.40
2023-05-05T14:55:39.243Z,40.41
2023-05-05T14:58:05.967Z,40.19
2023-05-05T15:00:32.628Z,40.29
2023-05-05T15:02:59.468Z,40.49
2023-05-05T15:05:26.229Z,40.65
2023-05-05T15:07:52.825Z,40.72
2023-05-05T15:10:21.823Z,41.01
2023-05-05T15:12:49.229Z,40.74
2023-05-05T15:15:15.906Z,40.97
2023-05-05T15:17:43.447Z,41.16
2023-05-05T15:20:10.602Z,40.95
2023-05-05T15:22:37.244Z,40.60
2023-05-05T15:25:04.350Z,40.66
2023-05-05T15:27:31.799Z,41.14
2023-05-05T15:29:58.447Z,41.62
2023-05-05T15:32:25.498Z,41.92
2023-05-05T15:34:52.286Z,41.79
2023-05-05T15:37:18.858Z,41.72
2023-05-05T15:39:45.549Z,42.31
2023-05-05T15:42:12.234Z,42.70
2023-05-05T15:44:38.866Z,43.00
2023-05-05T15:47:07.198Z,43.12
2023-05-05T15:49:34.350Z,43.00
2023-05-05T15:52:01.055Z,43.04
2023-05-05T15:54:27.970Z,43.38
2023-05-05T15:56:55.075Z,43.73
2023-05-05T15:59:22.616Z,43.60
2023-05-05T16:01:49.332Z,44.00
2023-05-05T16:04:16.178Z,44.26
2023-05-05T16:06:42.906Z,44.41
2023-05-05T16:09:10.295Z,44.33
2023-05-05T16:11:40.147Z,44.65
2023-05-05T16:14:06.823Z,44.73
2023-05-05T16:16:33.793Z,44.74
2023-05-05T16:19:00.934Z,45.00
2023-05-05T16:21:27.802Z,45.13
2023-05-05T16:23:54.745Z,45.27
2023-05-05T16:26:21.671Z,45.63
2023-05-05T16:28:48.664Z,45.75
2023-05-05T16:31:15.817Z,46.10
2023-05-05T16:33:43.722Z,46.03
2023-05-05T16:36:12.371Z,46.75
2023-05-05T16:38:40.018Z,46.90
2023-05-05T16:41:07.251Z,47.14
2023-05-05T16:43:34.453Z,47.07
2023-05-05T16:46:01.395Z,47.24
2023-05-05T16:48:28.189Z,47.39
2023-05-05T16:50:57.237Z,47.94
2023-05-05T16:53:24.406Z,48.10
2023-05-05T16:55:52.528Z,48.54
2023-05-05T16:58:20.499Z,49.04
2023-05-05T17:00:49.334Z,49.36
2023-05-05T17:03:20.595Z,50.05
2023-05-05T17:05:50.241Z,50.36
2023-05-05T17:08:17.539Z,51.12
2023-05-05T17:10:45.315Z,51.41
2023-05-05T17:13:14.420Z,51.70
2023-05-05T17:15:41.808Z,51.98
2023-05-05T17:18:08.867Z,52.24
2023-05-05T17:20:36.454Z,52.54
2023-05-05T17:23:09.002Z,52.84
2023-05-05T17:25:36.057Z,53.02
2023-05-05T17:28:02.976Z,53.58
2023-05-05T17:30:29.893Z,53.88
2023-05-05T17:32:56.945Z,54.35
2023-05-05T17:35:23.912Z,54.43
2023-05-05T17:37:51.371Z,54.74
2023-05-05T17:40:18.048Z,54.93
2023-05-05T17:42:44.711Z,54.96
2023-05-05T17:45:11.930Z,55.20
2023-05-05T17:47:38.877Z,55.49
2023-05-05T17:50:06.167Z,55.49
2023-05-05T17:52:33.016Z,55.86
2023-05-05T17:54:59.606Z,56.22
2023-05-05T17:57:26.470Z,56.18
2023-05-05T17:59:53.777Z,56.33
2023-05-05T18:02:21.442Z,56.57
2023-05-05T18:04:48.231Z,57.01
2023-05-05T18:07:15.366Z,57.22
2023-05-05T18:09:42.361Z,57.45
2023-05-05T18:12:09.484Z,57.65
2023-05-05T18:14:36.876Z,57.68
2023-05-05T18:17:04.819Z,57.86
2023-05-05T18:19:31.745Z,58.01
2023-05-05T18:21:59.367Z,58.28
2023-05-05T18:24:26.283Z,58.32
2023-05-05T18:26:58.810Z,58.62
2023-05-05T18:29:25.946Z,58.69
2023-05-05T18:31:54.718Z,58.96
2023-05-05T18:34:21.978Z,59.24
2023-05-05T18:36:51.480Z,59.52
2023-05-05T18:39:18.150Z,59.70
2023-05-05T18:41:44.835Z,59.96
2023-05-05T18:44:11.729Z,60.13
2023-05-05T18:46:38.443Z,60.37
2023-05-05T18:49:05.264Z,60.38
2023-05-05T18:51:32.479Z,60.83
2023-05-05T18:54:00.900Z,60.93
2023-05-05T18:56:27.786Z,60.96
2023-05-05T18:58:54.456Z,61.19
2023-05-05T19:01:21.354Z,61.39
2023-05-05T19:03:48.264Z,61.49
2023-05-05T19:06:16.118Z,61.57
2023-05-05T19:08:43.468Z,61.88
2023-05-05T19:11:10.207Z,61.85
2023-05-05T19:16:04.932Z,62.31
2023-05-05T19:18:31.633Z,62.38
2023-05-05T19:20:58.404Z,62.65
2023-05-05T19:23:25.120Z,63.04
2023-05-05T19:25:52.886Z,63.14
2023-05-05T19:28:19.948Z,63.35
2023-05-05T19:30:48.545Z,63.39
2023-05-05T19:33:15.990Z,63.58
2023-05-05T19:35:43.661Z,63.46
2023-05-05T19:38:10.382Z,63.61
2023-05-05T19:40:40.246Z,63.69
2023-05-05T19:43:07.915Z,63.86
2023-05-05T19:45:34.950Z,63.75
2023-05-05T19:48:02.093Z,63.95
2023-05-05T19:50:30.493Z,64.05
2023-05-05T19:52:57.824Z,64.14
2023-05-05T19:55:24.546Z,64.26
2023-05-05T19:57:51.739Z,64.66
2023-05-05T20:00:19.670Z,64.67
2023-05-05T20:02:46.527Z,64.88
2023-05-05T20:05:17.966Z,64.98
2023-05-05T20:07:46.405Z,65.30
2023-05-05T20:10:13.563Z,65.37
2023-05-05T20:12:47.766Z,65.55
2023-05-05T20:15:18.708Z,65.76
2023-05-05T20:17:46.943Z,65.93
2023-05-05T20:20:20.074Z,66.28
2023-05-05T20:22:47.960Z,66.13
2023-05-05T20:25:16.324Z,66.08
2023-05-05T20:27:44.287Z,66.45
2023-05-05T20:30:12.262Z,66.45
2023-05-05T20:32:39.440Z,66.66
2023-05-05T20:35:07.654Z,66.65
2023-05-05T20:37:34.620Z,66.87
2023-05-05T20:40:01.322Z,66.87
2023-05-05T20:42:29.921Z,67.08
2023-05-05T20:44:57.047Z,67.18
2023-05-05T20:47:24.363Z,67.16
2023-05-05T20:49:52.641Z,67.17
2023-05-05T20:52:19.531Z,66.98
2023-05-05T20:54:46.247Z,67.13
2023-05-05T20:57:13.169Z,67.15
2023-05-05T20:59:40.012Z,67.09
2023-05-05T21:02:07.279Z,67.42
2023-05-05T21:04:34.047Z,67.39
2023-05-05T21:07:01.033Z,67.53
2023-05-05T21:09:27.635Z,67.51
2023-05-05T21:11:54.455Z,67.53
2023-05-05T21:14:21.258Z,67.54
2023-05-05T21:16:48.783Z,67.51
2023-05-05T21:19:16.623Z,67.74
2023-05-05T21:21:43.422Z,67.85
2023-05-05T21:24:10.651Z,67.91
2023-05-05T21:26:37.697Z,68.02
2023-05-05T21:29:04.337Z,68.16
2023-05-05T21:31:31.057Z,68.26
2023-05-05T21:33:58.025Z,68.18
2023-05-05T21:36:24.841Z,68.36
2023-05-05T21:38:51.556Z,68.51
2023-05-05T21:41:18.603Z,68.68
2023-05-05T21:43:45.337Z,68.71
2023-05-05T21:46:12.291Z,68.81
2023-05-05T21:48:40.438Z,68.95
2023-05-05T21:51:07.659Z,69.01
2023-05-05T21:53:34.614Z,69.30
2023-05-05T21:56:01.773Z,69.43
2023-05-05T21:58:29.198Z,69.47
2023-05-05T22:00:55.896Z,69.47
2023-05-05T22:03:22.856Z,69.50
2023-05-05T22:05:49.559Z,69.56
2023-05-05T22:08:16.197Z,69.84
2023-05-05T22:10:42.940Z,69.96
2023-05-05T22:13:14.557Z,69.97
2023-05-05T22:15:46.533Z,70.00
2023-05-05T22:18:14.638Z,70.11
2023-05-05T22:20:41.397Z,70.28
2023-05-05T22:23:08.147Z,70.27
2023-05-05T22:25:35.438Z,70.28
2023-05-05T22:28:02.355Z,70.24
2023-05-05T22:30:28.989Z,70.36
2023-05-05T22:32:56.053Z,70.49
2023-05-05T22:35:22.882Z,70.46
2023-05-05T22:37:49.575Z,70.62
2023-05-05T22:40:16.498Z,70.75
2023-05-05T22:42:43.155Z,70.89
2023-05-05T22:45:10.417Z,70.76
2023-05-05T22:47:37.759Z,70.86
2023-05-05T22:50:04.575Z,70.84
2023-05-05T22:52:31.573Z,70.70
2023-05-05T22:54:58.542Z,71.09
2023-05-05T22:57:25.238Z,71.14
2023-05-05T22:59:52.140Z,71.26
2023-05-05T23:02:19.005Z,71.29
2023-05-05T23:04:45.912Z,71.37
2023-05-05T23:07:13.092Z,71.51
2023-05-05T23:09:40.842Z,71.62
2023-05-05T23:12:07.559Z,71.70
2023-05-05T23:14:35.328Z,71.95
2023-05-05T23:17:02.200Z,71.67
2023-05-05T23:19:32.734Z,71.66
2023-05-05T23:21:59.848Z,71.88
2023-05-05T23:24:27.718Z,71.64
2023-05-05T23:26:54.947Z,71.87
2023-05-05T23:29:21.523Z,71.91
2023-05-05T23:31:48.440Z,71.82
2023-05-05T23:34:15.049Z,71.86
2023-05-05T23:36:41.652Z,72.25
2023-05-05T23:39:08.957Z,72.13
2023-05-05T23:41:35.623Z,72.12
2023-05-05T23:44:02.505Z,71.99
2023-05-05T23:46:29.664Z,72.06
2023-05-05T23:48:56.805Z,72.22
2023-05-05T23:51:23.554Z,72.20
2023-05-05T23:53:50.452Z,72.27
2023-05-05T23:56:17.029Z,72.28
2023-05-05T23:58:43.692Z,72.32
